Portada
METAR-TAF:

METAR-TAF

Aeropuertos :

Aeropuerto Internacional de Pohnpei

Pohnpei, Micronesia

latitud: 06-59N, longitud: 158-12E, altitud: 2 m

Observación

El informe se hizo hace 12 horas y 4 minutos, a las 02:50 UTC
Viento 17 kt del este-noreste
Temperatura 32°C
Humedad 67%
Presión 1009 hPa
Visibilidad: 24.1 km
Nubes dispersas a una altura de 1800 ft
Cielo nuboso a una altura de 13000 ft
Cielo cubierto a una altura de 30000 ft

METAR: PTPN 240250Z 06017KT 15SM SCT018 BKN130 OVC300 32/25 A2980 RMK LAST

Hora: 01:54 (14:54 UTC)

Pronóstico

El informe se hizo hace 15 horas y 29 minutos, a las 23:25 UTC
Pronóstico válido del 24 a las 00 UTC al 24 a las 24 UTC
Viento 11 kt del este
Visibilidad: 10 km
Cielo nuboso a una altura de 1800 ft
Cielo nuboso a una altura de 13000 ft
chaparrones en las proximidades

TAF: PTPN 232325Z 2400/2424 08011KT P6SM VCSH BKN018 BKN130

Observaciones y pronósticos meteorológicos de más de 4000 aeropuertos (mensajes METAR y TAF).

Los puntos amarillos y rojos representan las estaciones disponibles.

Ponga el ratón en el punto deseado para ver el nombre de la estación.

Haga clic para ver las observaciones y los pronósticos meteorológicos.

Para cambiar el mapa : haga clic en los botones verdes con una cruz de color negro para hacer un zoom, en el botón verde con un guión para alejar o en las flechas verdes para mapas adyacentes.


METAR-TAF: